Weather at Ngurah Rai (Bali) International Airport

Public forecast

Using degrees Celsius for public forecast. Weather courtesy of forecast.io.

Current aviation weather report (METAR) for Ngurah Rai (Bali) International Airport

2024/02/25 12:00 (retrieved 24 minutes ago)

WADD 251200Z 29004KT 9999 BKN016 28/25 Q1009 NOSIG

Aviation forecast (TAF) for Ngurah Rai (Bali) International Airport

2024/02/25 12:09 (retrieved 15 minutes ago)

TAF WADD 251100Z 2512/2612 29010KT 9999 SCT016 TEMPO 2512/2515 VRB05KT 5000 TSRA FEW014CB BKN014